Time;durP1;ratioP1;P1;durP2;ratioP2;P2;SDS_P1;SDS_P2;PMS_P1;PMS_P2;Temp;Humidity;BMP_temperature;BMP_pressure;BME280_temperature;BME280_humidity;BME280_pressure;Samples;Min_cycle;Max_cycle;Signal;HPM_P1;HPM_P2
2023/08/17 00:01:51;;;;;;;12.60;6.60;;;;;;;;;;5018507;28;20033;-76
2023/08/17 00:04:19;;;;;;;10.75;6.40;;;;;;;;;;5017861;28;20047;-75
2023/08/17 00:06:45;;;;;;;13.10;6.75;;;;;;;;;;5018301;28;20033;-76
2023/08/17 00:09:12;;;;;;;12.07;6.47;;;;;;;;;;5021633;28;22359;-74
2023/08/17 00:11:37;;;;;;;12.25;6.82;;;;;;;;;;5019201;28;20040;-75
2023/08/17 00:14:03;;;;;;;12.50;6.60;;;;;;;;;;5018939;28;20628;-75
2023/08/17 00:16:28;;;;;;;13.88;6.57;;;;;;;;;;5020934;28;20044;-75
2023/08/17 00:18:54;;;;;;;14.43;6.45;;;;;;;;;;5023663;28;20051;-75
2023/08/17 00:21:19;;;;;;;14.25;7.00;;;;;;;;;;5016326;28;20029;-75
2023/08/17 00:23:44;;;;;;;11.25;7.30;;;;;;;;;;5015964;28;20042;-74
2023/08/17 00:26:13;;;;;;;14.02;7.50;;;;;;;;;;5015431;28;20048;-74
2023/08/17 00:28:39;;;;;;;12.55;7.15;;;;;;;;;;5035103;28;20064;-74
2023/08/17 00:31:04;;;;;;;13.57;6.82;;;;;;;;;;5049446;28;20076;-74
2023/08/17 00:33:30;;;;;;;11.27;6.72;;;;;;;;;;5020382;28;20057;-76
2023/08/17 00:35:55;;;;;;;12.43;6.50;;;;;;;;;;5016990;28;20128;-74
2023/08/17 00:38:20;;;;;;;11.20;6.15;;;;;;;;;;5019429;28;20041;-74
2023/08/17 00:40:46;;;;;;;15.00;7.13;;;;;;;;;;5017806;28;20044;-74
2023/08/17 00:43:14;;;;;;;16.33;7.30;;;;;;;;;;5016272;28;20041;-75
2023/08/17 00:45:40;;;;;;;12.73;6.47;;;;;;;;;;5016773;28;20032;-74
2023/08/17 00:48:07;;;;;;;9.43;6.50;;;;;;;;;;5031214;28;20041;-75
2023/08/17 00:50:36;;;;;;;11.98;6.53;;;;;;;;;;5021522;28;20097;-74
2023/08/17 00:53:01;;;;;;;9.60;5.85;;;;;;;;;;5019157;28;20067;-74
2023/08/17 00:55:27;;;;;;;11.27;6.60;;;;;;;;;;5017226;28;20041;-75
2023/08/17 00:57:53;;;;;;;12.80;6.82;;;;;;;;;;5018256;28;20033;-75
2023/08/17 01:00:19;;;;;;;12.25;6.53;;;;;;;;;;5017269;28;20075;-74
2023/08/17 01:02:47;;;;;;;11.43;6.47;;;;;;;;;;5031526;28;20063;-75
2023/08/17 01:05:13;;;;;;;16.83;7.53;;;;;;;;;;5022329;28;20083;-75
2023/08/17 01:07:38;;;;;;;10.57;6.90;;;;;;;;;;5015328;28;20028;-74
2023/08/17 01:10:06;;;;;;;16.30;7.50;;;;;;;;;;5017928;28;20061;-73
2023/08/17 01:12:43;;;;;;;13.00;6.70;;;;;;;;;;5019405;28;20030;-74
2023/08/17 01:15:24;;;;;;;13.30;6.95;;;;;;;;;;5052311;28;20034;-74
2023/08/17 01:17:49;;;;;;;12.00;6.25;;;;;;;;;;5018585;28;20068;-73
2023/08/17 01:20:19;;;;;;;11.23;6.95;;;;;;;;;;5025550;28;20030;-74
2023/08/17 01:22:45;;;;;;;17.48;7.25;;;;;;;;;;5003323;28;20785;-74
2023/08/17 01:25:10;;;;;;;12.90;7.35;;;;;;;;;;5023903;28;20037;-74
2023/08/17 01:27:43;;;;;;;16.02;7.00;;;;;;;;;;5053914;28;20081;-73
2023/08/17 01:30:10;;;;;;;12.88;6.68;;;;;;;;;;5022723;28;20048;-74
2023/08/17 01:32:56;;;;;;;14.82;6.78;;;;;;;;;;5022439;28;20036;-74
2023/08/17 01:35:21;;;;;;;10.75;6.93;;;;;;;;;;5019126;28;20033;-74
2023/08/17 01:37:50;;;;;;;15.90;7.07;;;;;;;;;;5052537;28;20037;-74
2023/08/17 01:40:18;;;;;;;13.88;7.18;;;;;;;;;;5020343;28;20591;-74
2023/08/17 01:42:44;;;;;;;15.00;6.97;;;;;;;;;;5024084;28;20662;-74
2023/08/17 01:45:12;;;;;;;11.00;6.53;;;;;;;;;;5021083;28;20030;-74
2023/08/17 01:47:37;;;;;;;12.55;7.55;;;;;;;;;;5023178;28;20026;-74
2023/08/17 01:50:03;;;;;;;11.75;7.15;;;;;;;;;;5018417;28;20082;-74
2023/08/17 01:52:28;;;;;;;13.35;7.00;;;;;;;;;;5020029;28;20472;-75
2023/08/17 01:54:54;;;;;;;16.00;7.72;;;;;;;;;;5009335;28;20048;-73
2023/08/17 01:57:19;;;;;;;17.90;7.47;;;;;;;;;;5019332;28;20083;-73
2023/08/17 01:59:44;;;;;;;14.73;7.57;;;;;;;;;;5020077;28;20124;-73
2023/08/17 02:02:11;;;;;;;13.40;6.90;;;;;;;;;;5021485;28;20122;-74
2023/08/17 02:04:36;;;;;;;13.35;6.75;;;;;;;;;;5020396;28;20053;-74
2023/08/17 02:07:02;;;;;;;14.32;7.85;;;;;;;;;;5024905;28;20130;-76
2023/08/17 02:09:27;;;;;;;13.52;7.05;;;;;;;;;;5019276;28;20037;-74
2023/08/17 02:11:52;;;;;;;14.95;7.20;;;;;;;;;;5020129;28;20037;-74
2023/08/17 02:14:18;;;;;;;15.77;7.45;;;;;;;;;;4988420;28;20092;-75
2023/08/17 02:16:43;;;;;;;12.63;7.40;;;;;;;;;;5019775;28;20033;-74
2023/08/17 02:19:08;;;;;;;10.48;7.20;;;;;;;;;;5022495;28;20051;-75
2023/08/17 02:21:34;;;;;;;14.30;7.93;;;;;;;;;;5018831;28;20107;-75
2023/08/17 02:23:59;;;;;;;13.32;7.35;;;;;;;;;;5018775;28;20048;-74
2023/08/17 02:26:24;;;;;;;12.65;7.15;;;;;;;;;;5017063;28;20038;-73
2023/08/17 02:28:50;;;;;;;12.52;7.00;;;;;;;;;;5024139;28;20053;-73
2023/08/17 02:31:15;;;;;;;16.50;7.03;;;;;;;;;;5019468;28;20070;-73
2023/08/17 02:33:40;;;;;;;13.05;7.70;;;;;;;;;;5017555;28;20080;-73
2023/08/17 02:36:06;;;;;;;12.38;7.78;;;;;;;;;;5022345;28;20032;-74
2023/08/17 02:38:31;;;;;;;15.60;7.55;;;;;;;;;;5021847;28;20049;-74
2023/08/17 02:40:56;;;;;;;13.75;6.95;;;;;;;;;;5019979;28;20033;-73
2023/08/17 02:43:22;;;;;;;12.48;7.65;;;;;;;;;;5018500;28;21043;-75
2023/08/17 02:45:47;;;;;;;13.55;8.20;;;;;;;;;;5016395;28;20026;-73
2023/08/17 02:48:14;;;;;;;13.55;7.15;;;;;;;;;;5018707;28;23191;-75
2023/08/17 02:50:43;;;;;;;12.18;7.60;;;;;;;;;;5018310;28;20034;-75
2023/08/17 02:53:09;;;;;;;12.02;7.75;;;;;;;;;;5018617;28;20045;-72
2023/08/17 02:55:34;;;;;;;15.00;8.30;;;;;;;;;;5017932;28;20033;-73
2023/08/17 02:58:02;;;;;;;13.00;7.20;;;;;;;;;;5049593;28;20055;-73
2023/08/17 03:00:28;;;;;;;11.90;6.93;;;;;;;;;;5019327;28;20040;-74
2023/08/17 03:02:53;;;;;;;12.25;7.50;;;;;;;;;;5018588;28;20036;-74
2023/08/17 03:05:19;;;;;;;12.20;7.35;;;;;;;;;;5022025;28;20044;-74
2023/08/17 03:07:46;;;;;;;14.05;7.85;;;;;;;;;;5016315;28;20037;-73
2023/08/17 03:10:12;;;;;;;14.02;7.90;;;;;;;;;;5019001;28;20122;-74
2023/08/17 03:12:39;;;;;;;12.48;7.57;;;;;;;;;;5049906;28;20931;-74
2023/08/17 03:15:06;;;;;;;15.45;8.23;;;;;;;;;;5018220;28;20033;-74
2023/08/17 03:17:31;;;;;;;12.88;7.30;;;;;;;;;;5047030;28;20041;-75
2023/08/17 03:19:59;;;;;;;15.32;8.05;;;;;;;;;;5018307;28;20672;-74
2023/08/17 03:22:24;;;;;;;14.20;8.10;;;;;;;;;;5020905;28;20036;-75
2023/08/17 03:24:49;;;;;;;13.15;7.40;;;;;;;;;;5017441;28;20120;-74
2023/08/17 03:27:17;;;;;;;16.48;8.07;;;;;;;;;;5005329;28;20033;-75
2023/08/17 03:29:42;;;;;;;15.15;8.55;;;;;;;;;;4980340;28;1160874;-75
2023/08/17 03:32:08;;;;;;;14.60;7.95;;;;;;;;;;5018732;28;20497;-74
2023/08/17 03:34:33;;;;;;;14.50;7.97;;;;;;;;;;5017711;28;20053;-75
2023/08/17 03:36:58;;;;;;;13.13;8.23;;;;;;;;;;5015998;28;20117;-74
2023/08/17 03:39:24;;;;;;;11.65;8.23;;;;;;;;;;5018372;28;20048;-75
2023/08/17 03:41:49;;;;;;;13.13;8.05;;;;;;;;;;5023033;28;20029;-73
2023/08/17 03:44:15;;;;;;;13.40;8.20;;;;;;;;;;5018431;28;20123;-73
2023/08/17 03:46:41;;;;;;;13.05;8.35;;;;;;;;;;5017409;28;20045;-72
2023/08/17 03:49:06;;;;;;;14.95;8.10;;;;;;;;;;5016778;28;20547;-74
2023/08/17 03:51:32;;;;;;;12.77;7.20;;;;;;;;;;5051221;28;20047;-73
2023/08/17 03:53:57;;;;;;;10.95;7.88;;;;;;;;;;5022056;28;20036;-73
2023/08/17 03:56:22;;;;;;;14.65;7.95;;;;;;;;;;5018752;28;20036;-73
2023/08/17 03:58:48;;;;;;;11.45;7.50;;;;;;;;;;5019127;28;20045;-73
2023/08/17 04:01:13;;;;;;;13.50;7.30;;;;;;;;;;5017722;28;20057;-73
2023/08/17 04:03:39;;;;;;;15.27;8.35;;;;;;;;;;5021891;28;20674;-73
2023/08/17 04:06:10;;;;;;;13.20;7.68;;;;;;;;;;5004995;28;20041;-76
2023/08/17 04:08:35;;;;;;;15.05;7.60;;;;;;;;;;5017896;28;20071;-75
2023/08/17 04:11:03;;;;;;;13.90;8.20;;;;;;;;;;5016365;28;20040;-72
2023/08/17 04:13:28;;;;;;;15.48;8.38;;;;;;;;;;5032035;28;20033;-73
2023/08/17 04:15:54;;;;;;;12.55;7.38;;;;;;;;;;5017568;28;20037;-73
2023/08/17 04:18:19;;;;;;;13.20;7.78;;;;;;;;;;5016489;28;20036;-75
2023/08/17 04:20:44;;;;;;;18.52;8.05;;;;;;;;;;5017449;28;20037;-75
2023/08/17 04:23:12;;;;;;;15.63;7.63;;;;;;;;;;5017054;28;20041;-75
2023/08/17 04:25:37;;;;;;;16.63;7.45;;;;;;;;;;5033417;28;20476;-74
2023/08/17 04:28:03;;;;;;;12.57;7.55;;;;;;;;;;5016919;28;20090;-72
2023/08/17 04:30:28;;;;;;;16.35;7.70;;;;;;;;;;5016461;28;20183;-75
2023/08/17 04:32:53;;;;;;;15.32;7.65;;;;;;;;;;5015956;28;20045;-75
2023/08/17 04:35:19;;;;;;;15.75;8.40;;;;;;;;;;5047218;28;20036;-73
2023/08/17 04:37:45;;;;;;;12.82;7.53;;;;;;;;;;5016477;28;20040;-72
2023/08/17 04:40:11;;;;;;;14.50;8.13;;;;;;;;;;5017070;28;20033;-72
2023/08/17 04:42:36;;;;;;;15.45;8.07;;;;;;;;;;5017277;28;20216;-73
2023/08/17 04:45:02;;;;;;;12.93;7.60;;;;;;;;;;5047787;28;20388;-74
2023/08/17 04:47:28;;;;;;;13.65;7.47;;;;;;;;;;5017632;28;20685;-73
2023/08/17 04:49:53;;;;;;;10.80;7.40;;;;;;;;;;5048426;28;20099;-74
2023/08/17 04:52:18;;;;;;;14.07;8.65;;;;;;;;;;5016425;28;20030;-73
2023/08/17 04:54:44;;;;;;;18.90;8.25;;;;;;;;;;5016039;28;20056;-75
2023/08/17 04:57:10;;;;;;;14.18;9.05;;;;;;;;;;5016790;28;20610;-73
2023/08/17 04:59:36;;;;;;;13.00;7.63;;;;;;;;;;5020176;28;20051;-73
2023/08/17 05:02:01;;;;;;;11.25;7.43;;;;;;;;;;5016703;28;20033;-75
2023/08/17 05:04:26;;;;;;;12.52;7.72;;;;;;;;;;5014779;28;20045;-73
2023/08/17 05:06:51;;;;;;;14.48;7.63;;;;;;;;;;5015311;28;20474;-71
2023/08/17 05:09:19;;;;;;;11.90;7.10;;;;;;;;;;5016648;28;22182;-72
2023/08/17 05:11:45;;;;;;;14.60;7.65;;;;;;;;;;4995198;28;20034;-72
2023/08/17 05:14:13;;;;;;;13.73;7.47;;;;;;;;;;4999074;28;20818;-71
2023/08/17 05:16:38;;;;;;;15.95;7.43;;;;;;;;;;4995766;28;20045;-70
2023/08/17 05:19:04;;;;;;;13.10;7.75;;;;;;;;;;5008726;28;20045;-73
2023/08/17 05:21:29;;;;;;;13.02;7.30;;;;;;;;;;4994366;28;20088;-73
2023/08/17 05:23:55;;;;;;;17.60;7.57;;;;;;;;;;4996978;28;20100;-74
2023/08/17 05:26:21;;;;;;;14.20;6.75;;;;;;;;;;4992321;28;20129;-73
2023/08/17 05:28:47;;;;;;;11.93;6.40;;;;;;;;;;4995627;28;21260;-73
2023/08/17 05:31:12;;;;;;;15.60;6.20;;;;;;;;;;4980077;28;20069;-73
2023/08/17 05:33:40;;;;;;;10.40;5.75;;;;;;;;;;5008898;28;20719;-72
2023/08/17 05:36:06;;;;;;;11.00;5.70;;;;;;;;;;5016509;28;20592;-73
2023/08/17 05:38:31;;;;;;;9.93;5.55;;;;;;;;;;5048261;28;20049;-72
2023/08/17 05:40:57;;;;;;;11.82;5.72;;;;;;;;;;5002935;28;20041;-73
2023/08/17 05:43:23;;;;;;;12.38;5.60;;;;;;;;;;5017784;28;20091;-73
2023/08/17 05:45:51;;;;;;;15.30;5.55;;;;;;;;;;5014570;28;20632;-73
2023/08/17 05:48:18;;;;;;;8.20;5.10;;;;;;;;;;5002836;28;20130;-73
2023/08/17 05:50:44;;;;;;;7.78;5.10;;;;;;;;;;5015663;28;20453;-70
2023/08/17 05:53:11;;;;;;;12.70;5.65;;;;;;;;;;5045263;28;20032;-71
2023/08/17 05:55:39;;;;;;;10.73;5.20;;;;;;;;;;5047278;28;20071;-71
2023/08/17 05:58:04;;;;;;;11.32;5.30;;;;;;;;;;5012120;28;20123;-73
2023/08/17 06:00:32;;;;;;;11.43;5.82;;;;;;;;;;5019821;28;20076;-71
2023/08/17 06:03:02;;;;;;;10.57;5.90;;;;;;;;;;5048518;28;20036;-72
2023/08/17 06:05:28;;;;;;;11.63;4.93;;;;;;;;;;5020443;28;20168;-73
2023/08/17 06:07:56;;;;;;;9.52;5.18;;;;;;;;;;5017861;28;20156;-74
2023/08/17 06:10:25;;;;;;;10.98;4.90;;;;;;;;;;5021977;28;20041;-72
2023/08/17 06:12:51;;;;;;;8.57;4.28;;;;;;;;;;5050803;28;20152;-72
2023/08/17 06:15:21;;;;;;;9.13;4.93;;;;;;;;;;5040999;28;20048;-73
2023/08/17 06:17:49;;;;;;;8.63;4.50;;;;;;;;;;5019451;28;20631;-74
2023/08/17 06:20:16;;;;;;;10.70;4.47;;;;;;;;;;5016537;28;20158;-72
2023/08/17 06:22:41;;;;;;;11.32;4.40;;;;;;;;;;5018581;28;20517;-72
2023/08/17 06:25:08;;;;;;;9.27;4.57;;;;;;;;;;5018495;28;20025;-72
2023/08/17 06:27:33;;;;;;;8.07;3.58;;;;;;;;;;5016007;28;20110;-71
2023/08/17 06:29:58;;;;;;;7.88;3.40;;;;;;;;;;5014767;28;20723;-70
2023/08/17 06:32:24;;;;;;;8.63;3.53;;;;;;;;;;5017272;28;20125;-71
2023/08/17 06:34:49;;;;;;;6.60;3.00;;;;;;;;;;5016562;28;20774;-71
2023/08/17 06:37:14;;;;;;;7.65;2.97;;;;;;;;;;5020162;28;20056;-74
2023/08/17 06:39:40;;;;;;;7.10;2.88;;;;;;;;;;5014093;28;20072;-73
2023/08/17 06:42:05;;;;;;;7.93;2.97;;;;;;;;;;5016941;28;20038;-73
2023/08/17 06:44:31;;;;;;;7.55;2.40;;;;;;;;;;5018580;28;20314;-72
2023/08/17 06:46:56;;;;;;;9.40;2.80;;;;;;;;;;5015843;28;20111;-72
2023/08/17 06:49:22;;;;;;;6.55;2.58;;;;;;;;;;5047445;28;20073;-73
2023/08/17 06:51:47;;;;;;;6.60;2.90;;;;;;;;;;5016573;28;20153;-73
2023/08/17 06:54:13;;;;;;;7.63;2.63;;;;;;;;;;5038627;28;20100;-72
2023/08/17 06:56:38;;;;;;;9.60;2.50;;;;;;;;;;5017493;28;20045;-73
2023/08/17 06:59:04;;;;;;;6.88;2.70;;;;;;;;;;5016280;28;20143;-72
2023/08/17 07:01:29;;;;;;;6.55;2.40;;;;;;;;;;5015580;28;20036;-72
2023/08/17 07:03:55;;;;;;;4.22;1.95;;;;;;;;;;5014366;28;20060;-72
2023/08/17 07:06:21;;;;;;;6.10;1.90;;;;;;;;;;5017367;28;20064;-73
2023/08/17 07:08:46;;;;;;;7.97;2.33;;;;;;;;;;5015986;28;20033;-72
2023/08/17 07:11:11;;;;;;;5.85;2.33;;;;;;;;;;5014109;28;20217;-71
2023/08/17 07:13:36;;;;;;;7.97;2.42;;;;;;;;;;5003484;28;20037;-70
2023/08/17 07:16:02;;;;;;;4.75;2.10;;;;;;;;;;5017774;28;20139;-69
2023/08/17 07:18:33;;;;;;;6.50;2.00;;;;;;;;;;5016209;28;20064;-69
2023/08/17 07:20:58;;;;;;;7.38;2.22;;;;;;;;;;5015431;28;20037;-67
2023/08/17 07:23:26;;;;;;;8.82;2.50;;;;;;;;;;5014881;28;20125;-71
2023/08/17 07:25:51;;;;;;;6.32;1.98;;;;;;;;;;5016954;28;20037;-69
2023/08/17 07:28:19;;;;;;;4.00;1.70;;;;;;;;;;5015722;28;20044;-68
2023/08/17 07:30:45;;;;;;;5.93;1.70;;;;;;;;;;5015731;28;20045;-71
2023/08/17 07:33:10;;;;;;;4.07;1.60;;;;;;;;;;5020161;28;20542;-70
2023/08/17 07:35:36;;;;;;;6.07;1.70;;;;;;;;;;5020033;28;20095;-72
2023/08/17 07:38:01;;;;;;;5.30;1.77;;;;;;;;;;5018745;28;20040;-71
2023/08/17 07:40:26;;;;;;;6.18;1.80;;;;;;;;;;5017936;28;20064;-72
2023/08/17 07:42:52;;;;;;;4.95;1.55;;;;;;;;;;5017524;28;20033;-70
2023/08/17 07:45:18;;;;;;;5.30;1.60;;;;;;;;;;5018020;28;20123;-71
2023/08/17 07:47:45;;;;;;;5.38;1.60;;;;;;;;;;5016740;28;20047;-71
2023/08/17 07:50:10;;;;;;;6.30;1.90;;;;;;;;;;5021236;28;20033;-71
2023/08/17 07:52:36;;;;;;;5.00;1.60;;;;;;;;;;5015904;28;22288;-69
2023/08/17 07:55:01;;;;;;;2.83;1.45;;;;;;;;;;5048675;28;20053;-71
2023/08/17 07:57:29;;;;;;;5.20;1.80;;;;;;;;;;5018725;28;20053;-70
2023/08/17 07:59:54;;;;;;;4.97;1.50;;;;;;;;;;5015443;28;20044;-69
2023/08/17 08:02:20;;;;;;;5.57;1.52;;;;;;;;;;5016075;28;20037;-72
2023/08/17 08:04:45;;;;;;;5.80;1.70;;;;;;;;;;5033154;28;20051;-70
2023/08/17 08:07:10;;;;;;;4.63;1.77;;;;;;;;;;5016971;28;20033;-69
2023/08/17 08:09:36;;;;;;;4.50;1.65;;;;;;;;;;5048976;28;20034;-71
2023/08/17 08:12:02;;;;;;;4.55;1.50;;;;;;;;;;5016278;28;20040;-70
2023/08/17 08:14:27;;;;;;;4.57;1.50;;;;;;;;;;5018081;28;20075;-71
2023/08/17 08:16:52;;;;;;;5.10;1.55;;;;;;;;;;5017833;28;22243;-71
2023/08/17 08:19:18;;;;;;;4.30;1.40;;;;;;;;;;5017219;28;20103;-71
2023/08/17 08:21:43;;;;;;;4.07;1.40;;;;;;;;;;5010475;28;20034;-71
2023/08/17 08:24:08;;;;;;;3.22;1.48;;;;;;;;;;5017638;28;20067;-71
2023/08/17 08:26:34;;;;;;;2.60;1.40;;;;;;;;;;5017170;28;20037;-69
2023/08/17 08:28:59;;;;;;;5.47;1.50;;;;;;;;;;5017639;28;20528;-71
2023/08/17 08:31:25;;;;;;;4.57;1.33;;;;;;;;;;5023088;28;20132;-71
2023/08/17 08:33:51;;;;;;;4.07;1.38;;;;;;;;;;5021003;28;20037;-72
2023/08/17 08:36:19;;;;;;;3.15;1.33;;;;;;;;;;5014772;28;20060;-71
2023/08/17 08:38:47;;;;;;;5.90;1.33;;;;;;;;;;5016820;28;20090;-68
2023/08/17 08:41:12;;;;;;;4.20;1.10;;;;;;;;;;5048480;28;20037;-69
2023/08/17 08:43:40;;;;;;;4.85;1.52;;;;;;;;;;5021576;28;20044;-71
2023/08/17 08:46:06;;;;;;;4.05;1.50;;;;;;;;;;5017140;28;20051;-71
2023/08/17 08:48:32;;;;;;;4.57;1.35;;;;;;;;;;5018321;28;20029;-71
2023/08/17 08:50:59;;;;;;;2.72;1.35;;;;;;;;;;5032276;28;20060;-66
2023/08/17 08:53:27;;;;;;;3.47;1.50;;;;;;;;;;5014305;28;20089;-65
2023/08/17 08:55:58;;;;;;;5.18;1.20;;;;;;;;;;5019604;28;22232;-65
2023/08/17 08:58:25;;;;;;;2.17;1.17;;;;;;;;;;5003444;28;20142;-67
2023/08/17 09:00:53;;;;;;;3.10;1.38;;;;;;;;;;5018535;28;20036;-66
2023/08/17 09:03:21;;;;;;;3.83;1.35;;;;;;;;;;5018220;28;20090;-66
2023/08/17 09:05:48;;;;;;;3.38;1.40;;;;;;;;;;5018408;28;20037;-66
2023/08/17 09:08:13;;;;;;;4.95;1.23;;;;;;;;;;5045894;28;20037;-64
2023/08/17 09:10:39;;;;;;;3.75;1.35;;;;;;;;;;5016395;28;20215;-63
2023/08/17 09:13:04;;;;;;;5.65;1.60;;;;;;;;;;5015988;28;20029;-65
2023/08/17 09:15:29;;;;;;;5.25;1.73;;;;;;;;;;5049060;28;20053;-64
2023/08/17 09:17:55;;;;;;;6.97;1.60;;;;;;;;;;5031231;28;20046;-65
2023/08/17 09:20:56;;;;;;;4.22;1.60;;;;;;;;;;5011951;28;20848;-64
2023/08/17 09:23:21;;;;;;;4.40;1.10;;;;;;;;;;4965148;28;20602;-63
2023/08/17 09:25:47;;;;;;;7.47;1.40;;;;;;;;;;4975464;28;20033;-63
2023/08/17 09:28:14;;;;;;;3.72;1.50;;;;;;;;;;4998349;28;20084;-63
2023/08/17 09:30:55;;;;;;;4.93;1.55;;;;;;;;;;4993224;28;20052;-62
2023/08/17 09:33:21;;;;;;;4.95;1.20;;;;;;;;;;4997428;28;20029;-62
2023/08/17 09:35:47;;;;;;;5.55;1.30;;;;;;;;;;4998507;28;20048;-65
2023/08/17 09:38:12;;;;;;;4.97;1.38;;;;;;;;;;4997893;28;20041;-65
2023/08/17 09:40:40;;;;;;;4.22;1.25;;;;;;;;;;4999068;28;20815;-70
2023/08/17 09:43:09;;;;;;;3.15;1.30;;;;;;;;;;5004386;28;20183;-68
2023/08/17 09:45:38;;;;;;;7.60;1.80;;;;;;;;;;5002694;28;20072;-69
2023/08/17 09:48:06;;;;;;;6.28;1.88;;;;;;;;;;5013501;28;20075;-67
2023/08/17 09:50:31;;;;;;;3.22;1.63;;;;;;;;;;5018118;28;20033;-68
2023/08/17 09:52:57;;;;;;;2.83;1.48;;;;;;;;;;5049443;28;20028;-68
2023/08/17 09:55:23;;;;;;;4.72;1.60;;;;;;;;;;5021049;28;20033;-67
2023/08/17 09:57:51;;;;;;;4.95;1.98;;;;;;;;;;5015869;28;20554;-70
2023/08/17 10:00:17;;;;;;;5.40;1.73;;;;;;;;;;5019357;28;20037;-69
2023/08/17 10:02:44;;;;;;;4.88;1.70;;;;;;;;;;5022232;28;23023;-67
2023/08/17 10:05:10;;;;;;;4.60;1.73;;;;;;;;;;5018918;28;20079;-70
2023/08/17 10:07:38;;;;;;;4.70;1.80;;;;;;;;;;5019732;28;20037;-68
2023/08/17 10:10:04;;;;;;;7.13;1.67;;;;;;;;;;5019729;28;20044;-69
2023/08/17 10:12:32;;;;;;;4.93;1.70;;;;;;;;;;5018744;28;20095;-68
2023/08/17 10:15:05;;;;;;;3.88;1.42;;;;;;;;;;5019160;28;20056;-69
2023/08/17 10:17:34;;;;;;;5.05;1.55;;;;;;;;;;5019612;28;20121;-68
2023/08/17 10:20:00;;;;;;;4.13;1.60;;;;;;;;;;5019254;28;20045;-63
2023/08/17 10:22:29;;;;;;;3.95;1.55;;;;;;;;;;5018032;28;20029;-64
2023/08/17 10:24:55;;;;;;;4.97;1.67;;;;;;;;;;5017915;28;20136;-65
2023/08/17 10:27:21;;;;;;;6.30;1.77;;;;;;;;;;5019587;28;20033;-66
2023/08/17 10:29:50;;;;;;;4.45;1.80;;;;;;;;;;5021773;28;20037;-65
2023/08/17 10:32:16;;;;;;;5.28;1.60;;;;;;;;;;5015279;28;20032;-65
2023/08/17 10:34:41;;;;;;;4.07;1.50;;;;;;;;;;5034109;28;20570;-64
2023/08/17 10:37:07;;;;;;;3.70;1.40;;;;;;;;;;5022945;28;20043;-66
2023/08/17 10:39:37;;;;;;;5.30;1.40;;;;;;;;;;5029589;28;20072;-65
2023/08/17 10:42:04;;;;;;;2.38;1.10;;;;;;;;;;5014850;28;20041;-64
2023/08/17 10:44:40;;;;;;;5.38;1.52;;;;;;;;;;5012225;28;20585;-65
2023/08/17 10:47:21;;;;;;;3.63;1.33;;;;;;;;;;5017630;28;20045;-66
2023/08/17 10:49:57;;;;;;;3.40;1.20;;;;;;;;;;5016807;28;20144;-64
2023/08/17 10:52:26;;;;;;;5.78;1.30;;;;;;;;;;5019508;28;20068;-63
2023/08/17 10:54:52;;;;;;;4.43;1.20;;;;;;;;;;5048567;28;20128;-62
2023/08/17 10:57:24;;;;;;;5.47;1.58;;;;;;;;;;5018501;28;20136;-62
2023/08/17 11:00:06;;;;;;;3.75;1.25;;;;;;;;;;5046031;28;20044;-62
2023/08/17 11:02:34;;;;;;;5.32;1.27;;;;;;;;;;5017162;28;20718;-67
2023/08/17 11:05:03;;;;;;;4.28;1.42;;;;;;;;;;4978325;28;20037;-67
2023/08/17 11:07:38;;;;;;;4.70;1.40;;;;;;;;;;4995922;28;20049;-68
2023/08/17 11:10:10;;;;;;;5.78;1.30;;;;;;;;;;4997156;28;20041;-66
2023/08/17 11:12:35;;;;;;;7.80;1.70;;;;;;;;;;4998515;28;20049;-66
2023/08/17 11:15:01;;;;;;;5.15;1.33;;;;;;;;;;5000624;28;20037;-68
2023/08/17 11:17:27;;;;;;;3.92;1.50;;;;;;;;;;4997197;28;20491;-66
2023/08/17 11:19:52;;;;;;;5.15;1.30;;;;;;;;;;4997863;28;20102;-67
2023/08/17 11:22:20;;;;;;;6.47;1.65;;;;;;;;;;4986291;28;20037;-69
2023/08/17 11:24:46;;;;;;;6.32;1.50;;;;;;;;;;4999708;28;20164;-67
2023/08/17 11:27:14;;;;;;;5.95;1.52;;;;;;;;;;4997022;28;20535;-67
2023/08/17 11:29:39;;;;;;;5.55;1.60;;;;;;;;;;5015505;28;20038;-66
2023/08/17 11:32:04;;;;;;;3.58;1.27;;;;;;;;;;5018652;28;20048;-65
2023/08/17 11:34:30;;;;;;;4.05;1.45;;;;;;;;;;5016946;28;20029;-65
2023/08/17 11:36:57;;;;;;;7.55;1.60;;;;;;;;;;5017676;28;20044;-68
2023/08/17 11:39:22;;;;;;;3.72;1.52;;;;;;;;;;5017261;28;20852;-66
2023/08/17 11:41:52;;;;;;;4.50;1.30;;;;;;;;;;5019563;28;20051;-67
2023/08/17 11:44:20;;;;;;;7.22;1.95;;;;;;;;;;4988036;28;20075;-68
2023/08/17 11:46:46;;;;;;;5.03;1.30;;;;;;;;;;5018897;28;20036;-67
2023/08/17 11:49:14;;;;;;;4.25;1.65;;;;;;;;;;5024926;28;20049;-67
2023/08/17 11:51:40;;;;;;;4.68;1.52;;;;;;;;;;5019012;28;20102;-67
2023/08/17 11:54:08;;;;;;;6.15;1.60;;;;;;;;;;5015426;28;20075;-65
2023/08/17 11:56:33;;;;;;;7.75;1.60;;;;;;;;;;5004259;28;20432;-67
2023/08/17 11:59:07;;;;;;;6.70;1.50;;;;;;;;;;5015786;28;20599;-67
2023/08/17 12:01:34;;;;;;;4.35;1.30;;;;;;;;;;5022000;28;20047;-67
2023/08/17 12:04:00;;;;;;;3.60;1.38;;;;;;;;;;5015737;28;22715;-68
2023/08/17 12:06:25;;;;;;;6.68;1.75;;;;;;;;;;5046829;28;20090;-69
2023/08/17 12:08:53;;;;;;;4.07;1.48;;;;;;;;;;5043391;28;20037;-67
2023/08/17 12:11:18;;;;;;;4.20;1.48;;;;;;;;;;5045142;28;20037;-66
2023/08/17 12:13:48;;;;;;;3.95;1.25;;;;;;;;;;5013501;28;20075;-68
2023/08/17 12:16:17;;;;;;;6.53;1.70;;;;;;;;;;4996080;28;20034;-69
2023/08/17 12:18:44;;;;;;;;;;;;;;;;;;4998769;28;20049;-67
2023/08/17 12:21:10;;;;;;;5.95;1.60;;;;;;;;;;4997707;28;19917;-67
2023/08/17 12:23:35;;;;;;;2.88;1.30;;;;;;;;;;5002079;28;20033;-67
2023/08/17 12:26:01;;;;;;;6.25;1.65;;;;;;;;;;5028576;28;20037;-69
2023/08/17 12:28:26;;;;;;;5.00;1.80;;;;;;;;;;4994131;28;20045;-66
2023/08/17 12:30:59;;;;;;;5.10;1.50;;;;;;;;;;4998468;28;20053;-67
2023/08/17 12:33:24;;;;;;;2.50;1.33;;;;;;;;;;5000138;28;22171;-68
2023/08/17 12:35:50;;;;;;;6.20;1.60;;;;;;;;;;5003163;28;20030;-68
2023/08/17 12:38:15;;;;;;;2.95;1.70;;;;;;;;;;4995921;28;20048;-69
2023/08/17 12:40:40;;;;;;;7.20;1.40;;;;;;;;;;4986275;28;20052;-67
2023/08/17 12:43:06;;;;;;;4.18;1.67;;;;;;;;;;4996652;28;20053;-66
2023/08/17 12:45:31;;;;;;;5.97;1.58;;;;;;;;;;4996936;28;20037;-67
2023/08/17 12:47:57;;;;;;;4.32;1.48;;;;;;;;;;4994631;28;20092;-67
2023/08/17 12:50:22;;;;;;;4.10;1.80;;;;;;;;;;4995063;28;20037;-67
2023/08/17 12:52:47;;;;;;;5.00;1.90;;;;;;;;;;4992980;28;20041;-66
2023/08/17 12:55:12;;;;;;;11.05;1.98;;;;;;;;;;4995015;28;20077;-69
2023/08/17 12:57:38;;;;;;;4.93;1.92;;;;;;;;;;4995786;28;20497;-67
2023/08/17 13:00:03;;;;;;;5.43;1.65;;;;;;;;;;4992344;28;20045;-67
2023/08/17 13:02:29;;;;;;;7.13;1.60;;;;;;;;;;4993548;28;20080;-68
2023/08/17 13:04:54;;;;;;;4.30;1.90;;;;;;;;;;4990266;28;20706;-67
2023/08/17 13:07:19;;;;;;;8.10;2.13;;;;;;;;;;4997196;28;20305;-67
2023/08/17 13:09:46;;;;;;;8.00;2.03;;;;;;;;;;4997110;28;20048;-67
2023/08/17 13:12:11;;;;;;;5.93;1.73;;;;;;;;;;4997781;28;20403;-66
2023/08/17 13:14:39;;;;;;;7.97;2.00;;;;;;;;;;4995954;28;20025;-66
2023/08/17 13:17:04;;;;;;;7.07;1.73;;;;;;;;;;4997731;28;20040;-66
2023/08/17 13:19:29;;;;;;;7.80;1.98;;;;;;;;;;4997036;28;20786;-66
2023/08/17 13:21:55;;;;;;;4.18;1.80;;;;;;;;;;4998651;28;20119;-66
2023/08/17 13:24:22;;;;;;;5.07;1.95;;;;;;;;;;4997579;28;20042;-66
2023/08/17 13:26:52;;;;;;;4.18;1.80;;;;;;;;;;4997924;28;20474;-65
2023/08/17 13:29:17;;;;;;;6.32;2.08;;;;;;;;;;4997755;28;20442;-66
2023/08/17 13:31:43;;;;;;;7.65;1.90;;;;;;;;;;4995781;28;20049;-69
2023/08/17 13:34:08;;;;;;;5.55;2.13;;;;;;;;;;5001771;28;20037;-67
2023/08/17 13:36:36;;;;;;;7.88;1.95;;;;;;;;;;4995797;28;20292;-66
2023/08/17 13:39:02;;;;;;;5.35;2.28;;;;;;;;;;4997061;28;20208;-66
2023/08/17 13:41:30;;;;;;;4.90;1.90;;;;;;;;;;4995772;28;20433;-68
2023/08/17 13:43:57;;;;;;;3.95;1.90;;;;;;;;;;4997503;28;20038;-67
2023/08/17 13:46:22;;;;;;;6.75;2.10;;;;;;;;;;4998743;28;20068;-67
2023/08/17 13:48:48;;;;;;;5.28;2.05;;;;;;;;;;4997135;28;20182;-66
2023/08/17 13:51:13;;;;;;;8.68;2.10;;;;;;;;;;4997220;28;20093;-68
2023/08/17 13:53:38;;;;;;;5.32;2.08;;;;;;;;;;5020015;28;20044;-68
2023/08/17 13:56:04;;;;;;;6.55;1.80;;;;;;;;;;5040481;28;20037;-68
2023/08/17 13:58:29;;;;;;;6.28;2.33;;;;;;;;;;5018266;28;20071;-63
2023/08/17 14:00:54;;;;;;;5.32;2.00;;;;;;;;;;5024458;28;20032;-62
2023/08/17 14:03:22;;;;;;;6.78;2.17;;;;;;;;;;5049816;28;20029;-62
2023/08/17 14:05:47;;;;;;;4.70;2.10;;;;;;;;;;5019489;28;20037;-64
2023/08/17 14:08:12;;;;;;;4.75;1.92;;;;;;;;;;5017481;28;20041;-65
2023/08/17 14:10:38;;;;;;;6.15;2.00;;;;;;;;;;5017282;27;20968;-62
2023/08/17 14:13:04;;;;;;;6.20;2.10;;;;;;;;;;5015815;28;20363;-62
2023/08/17 14:15:29;;;;;;;6.50;2.20;;;;;;;;;;5016659;28;20086;-62
2023/08/17 14:17:57;;;;;;;7.25;2.70;;;;;;;;;;5015977;28;20292;-65
2023/08/17 14:20:25;;;;;;;7.40;2.20;;;;;;;;;;5021368;28;20537;-62
2023/08/17 14:22:53;;;;;;;5.43;2.50;;;;;;;;;;5018076;28;20411;-61
2023/08/17 14:25:18;;;;;;;5.72;2.08;;;;;;;;;;5016060;28;20033;-63
2023/08/17 14:27:46;;;;;;;9.25;2.45;;;;;;;;;;5005430;28;20037;-62
2023/08/17 14:30:11;;;;;;;6.20;2.30;;;;;;;;;;5023326;28;20170;-60
2023/08/17 14:32:36;;;;;;;5.97;2.53;;;;;;;;;;5020143;28;20476;-64
2023/08/17 14:35:02;;;;;;;8.68;2.33;;;;;;;;;;5023431;28;20029;-62